sensor_id;sensor_type;location;lat;lon;timestamp;temperature;humidity
17986;DHT22;9118;48.122;11.546;2023-11-19T00:02:25;6.10;99.90
17986;DHT22;9118;48.122;11.546;2023-11-19T00:04:52;6.00;99.90
17986;DHT22;9118;48.122;11.546;2023-11-19T00:07:19;6.00;99.90
17986;DHT22;9118;48.122;11.546;2023-11-19T00:09:46;6.10;99.90
17986;DHT22;9118;48.122;11.546;2023-11-19T00:12:14;6.10;99.90
17986;DHT22;9118;48.122;11.546;2023-11-19T00:14:41;6.20;99.90
17986;DHT22;9118;48.122;11.546;2023-11-19T00:17:08;6.00;99.90
17986;DHT22;9118;48.122;11.546;2023-11-19T00:19:35;6.30;99.90
17986;DHT22;9118;48.122;11.546;2023-11-19T00:22:01;6.40;99.90
17986;DHT22;9118;48.122;11.546;2023-11-19T00:24:29;6.30;99.90
17986;DHT22;9118;48.122;11.546;2023-11-19T00:26:56;6.30;99.90
17986;DHT22;9118;48.122;11.546;2023-11-19T00:29:24;6.30;99.90
17986;DHT22;9118;48.122;11.546;2023-11-19T00:31:51;6.40;99.90
17986;DHT22;9118;48.122;11.546;2023-11-19T00:34:18;6.40;99.90
17986;DHT22;9118;48.122;11.546;2023-11-19T00:36:48;6.50;99.90
17986;DHT22;9118;48.122;11.546;2023-11-19T00:39:14;6.20;99.90
17986;DHT22;9118;48.122;11.546;2023-11-19T00:41:42;6.40;99.90
17986;DHT22;9118;48.122;11.546;2023-11-19T00:44:11;6.30;99.90
17986;DHT22;9118;48.122;11.546;2023-11-19T00:46:39;6.30;99.90
17986;DHT22;9118;48.122;11.546;2023-11-19T00:49:07;6.30;99.90
17986;DHT22;9118;48.122;11.546;2023-11-19T00:51:37;6.40;99.90
17986;DHT22;9118;48.122;11.546;2023-11-19T00:54:06;6.60;99.90
17986;DHT22;9118;48.122;11.546;2023-11-19T00:56:33;6.50;99.90
17986;DHT22;9118;48.122;11.546;2023-11-19T00:59:00;6.60;99.90
17986;DHT22;9118;48.122;11.546;2023-11-19T01:03:55;6.50;99.90
17986;DHT22;9118;48.122;11.546;2023-11-19T01:06:28;6.60;99.90
17986;DHT22;9118;48.122;11.546;2023-11-19T01:08:55;6.60;99.90
17986;DHT22;9118;48.122;11.546;2023-11-19T01:11:22;6.60;99.90
17986;DHT22;9118;48.122;11.546;2023-11-19T01:13:49;6.70;99.90
17986;DHT22;9118;48.122;11.546;2023-11-19T01:16:16;6.80;99.90
17986;DHT22;9118;48.122;11.546;2023-11-19T01:18:44;6.10;99.90
17986;DHT22;9118;48.122;11.546;2023-11-19T01:21:12;6.80;99.90
17986;DHT22;9118;48.122;11.546;2023-11-19T01:23:40;6.90;99.90
17986;DHT22;9118;48.122;11.546;2023-11-19T01:26:08;6.90;99.90
17986;DHT22;9118;48.122;11.546;2023-11-19T01:28:35;6.80;99.90
17986;DHT22;9118;48.122;11.546;2023-11-19T01:31:02;6.80;99.90
17986;DHT22;9118;48.122;11.546;2023-11-19T01:33:29;6.90;99.90
17986;DHT22;9118;48.122;11.546;2023-11-19T01:35:56;6.90;99.90
17986;DHT22;9118;48.122;11.546;2023-11-19T01:38:25;6.80;99.90
17986;DHT22;9118;48.122;11.546;2023-11-19T01:40:55;6.90;99.90
17986;DHT22;9118;48.122;11.546;2023-11-19T01:43:31;6.90;99.90
17986;DHT22;9118;48.122;11.546;2023-11-19T01:45:58;7.00;99.90
17986;DHT22;9118;48.122;11.546;2023-11-19T01:48:25;7.00;99.90
17986;DHT22;9118;48.122;11.546;2023-11-19T01:50:52;7.00;99.90
17986;DHT22;9118;48.122;11.546;2023-11-19T01:53:22;7.10;99.90
17986;DHT22;9118;48.122;11.546;2023-11-19T01:55:50;7.10;99.90
17986;DHT22;9118;48.122;11.546;2023-11-19T01:58:17;7.20;99.90
17986;DHT22;9118;48.122;11.546;2023-11-19T02:00:44;7.10;99.90
17986;DHT22;9118;48.122;11.546;2023-11-19T02:03:11;7.20;99.90
17986;DHT22;9118;48.122;11.546;2023-11-19T02:05:39;8.10;99.90
17986;DHT22;9118;48.122;11.546;2023-11-19T02:08:06;7.20;99.90
17986;DHT22;9118;48.122;11.546;2023-11-19T02:10:33;7.30;99.90
17986;DHT22;9118;48.122;11.546;2023-11-19T02:13:01;7.20;99.90
17986;DHT22;9118;48.122;11.546;2023-11-19T02:15:30;7.30;99.90
17986;DHT22;9118;48.122;11.546;2023-11-19T02:18:16;7.30;99.90
17986;DHT22;9118;48.122;11.546;2023-11-19T02:20:43;7.40;99.90
17986;DHT22;9118;48.122;11.546;2023-11-19T02:23:10;7.40;99.90
17986;DHT22;9118;48.122;11.546;2023-11-19T02:25:36;7.50;99.90
17986;DHT22;9118;48.122;11.546;2023-11-19T02:28:06;8.30;99.90
17986;DHT22;9118;48.122;11.546;2023-11-19T02:30:33;7.50;99.90
17986;DHT22;9118;48.122;11.546;2023-11-19T02:33:00;7.60;99.90
17986;DHT22;9118;48.122;11.546;2023-11-19T02:35:33;7.60;99.90
17986;DHT22;9118;48.122;11.546;2023-11-19T02:38:00;7.60;99.90
17986;DHT22;9118;48.122;11.546;2023-11-19T02:40:29;7.70;99.90
17986;DHT22;9118;48.122;11.546;2023-11-19T02:42:56;7.70;99.90
17986;DHT22;9118;48.122;11.546;2023-11-19T02:45:24;7.80;99.90
17986;DHT22;9118;48.122;11.546;2023-11-19T02:47:51;7.80;99.90
17986;DHT22;9118;48.122;11.546;2023-11-19T02:50:20;7.80;99.90
17986;DHT22;9118;48.122;11.546;2023-11-19T02:52:51;7.90;99.90
17986;DHT22;9118;48.122;11.546;2023-11-19T02:55:17;7.90;99.90
17986;DHT22;9118;48.122;11.546;2023-11-19T02:57:44;7.90;99.90
17986;DHT22;9118;48.122;11.546;2023-11-19T03:00:14;7.90;99.90
17986;DHT22;9118;48.122;11.546;2023-11-19T03:02:42;7.90;99.90
17986;DHT22;9118;48.122;11.546;2023-11-19T03:05:12;7.90;99.90
17986;DHT22;9118;48.122;11.546;2023-11-19T03:07:40;8.00;99.90
17986;DHT22;9118;48.122;11.546;2023-11-19T03:10:09;8.10;99.90
17986;DHT22;9118;48.122;11.546;2023-11-19T03:12:39;7.90;99.90
17986;DHT22;9118;48.122;11.546;2023-11-19T03:15:06;7.20;99.90
17986;DHT22;9118;48.122;11.546;2023-11-19T03:17:35;8.00;99.90
17986;DHT22;9118;48.122;11.546;2023-11-19T03:20:05;8.10;99.90
17986;DHT22;9118;48.122;11.546;2023-11-19T03:22:35;8.10;99.90
17986;DHT22;9118;48.122;11.546;2023-11-19T03:25:03;8.20;99.90
17986;DHT22;9118;48.122;11.546;2023-11-19T03:27:30;8.20;99.90
17986;DHT22;9118;48.122;11.546;2023-11-19T03:29:57;8.40;99.90
17986;DHT22;9118;48.122;11.546;2023-11-19T03:32:24;8.20;99.90
17986;DHT22;9118;48.122;11.546;2023-11-19T03:34:51;8.20;99.90
17986;DHT22;9118;48.122;11.546;2023-11-19T03:37:19;8.20;99.90
17986;DHT22;9118;48.122;11.546;2023-11-19T03:39:46;8.20;99.90
17986;DHT22;9118;48.122;11.546;2023-11-19T03:42:12;8.10;99.90
17986;DHT22;9118;48.122;11.546;2023-11-19T03:44:40;8.30;99.90
17986;DHT22;9118;48.122;11.546;2023-11-19T03:47:06;8.20;99.90
17986;DHT22;9118;48.122;11.546;2023-11-19T03:49:33;8.30;99.90
17986;DHT22;9118;48.122;11.546;2023-11-19T03:52:00;8.30;99.90
17986;DHT22;9118;48.122;11.546;2023-11-19T03:54:28;8.30;99.90
17986;DHT22;9118;48.122;11.546;2023-11-19T03:56:55;8.90;99.90
17986;DHT22;9118;48.122;11.546;2023-11-19T03:59:21;8.40;99.90
17986;DHT22;9118;48.122;11.546;2023-11-19T04:01:48;8.40;99.90
17986;DHT22;9118;48.122;11.546;2023-11-19T04:04:19;8.40;99.90
17986;DHT22;9118;48.122;11.546;2023-11-19T04:06:47;8.50;99.90
17986;DHT22;9118;48.122;11.546;2023-11-19T04:09:14;8.40;99.90
17986;DHT22;9118;48.122;11.546;2023-11-19T04:11:42;8.50;99.90
17986;DHT22;9118;48.122;11.546;2023-11-19T04:14:09;9.40;99.90
17986;DHT22;9118;48.122;11.546;2023-11-19T04:16:35;8.50;99.90
17986;DHT22;9118;48.122;11.546;2023-11-19T04:19:03;8.50;99.90
17986;DHT22;9118;48.122;11.546;2023-11-19T04:21:29;8.60;99.90
17986;DHT22;9118;48.122;11.546;2023-11-19T04:23:56;8.60;99.90
17986;DHT22;9118;48.122;11.546;2023-11-19T04:26:23;8.70;99.90
17986;DHT22;9118;48.122;11.546;2023-11-19T04:28:51;8.60;99.90
17986;DHT22;9118;48.122;11.546;2023-11-19T04:31:18;8.60;99.90
17986;DHT22;9118;48.122;11.546;2023-11-19T04:33:44;8.70;99.90
17986;DHT22;9118;48.122;11.546;2023-11-19T04:36:12;8.80;99.90
17986;DHT22;9118;48.122;11.546;2023-11-19T04:38:42;8.90;99.90
17986;DHT22;9118;48.122;11.546;2023-11-19T04:41:08;9.00;99.90
17986;DHT22;9118;48.122;11.546;2023-11-19T04:43:35;9.00;99.90
17986;DHT22;9118;48.122;11.546;2023-11-19T04:46:04;9.20;99.90
17986;DHT22;9118;48.122;11.546;2023-11-19T04:48:31;9.20;99.90
17986;DHT22;9118;48.122;11.546;2023-11-19T04:50:58;9.20;99.90
17986;DHT22;9118;48.122;11.546;2023-11-19T04:53:25;9.30;99.90
17986;DHT22;9118;48.122;11.546;2023-11-19T04:55:51;9.30;99.90
17986;DHT22;9118;48.122;11.546;2023-11-19T04:58:18;9.40;99.90
17986;DHT22;9118;48.122;11.546;2023-11-19T05:00:45;9.60;99.90
17986;DHT22;9118;48.122;11.546;2023-11-19T05:03:13;9.60;99.90
17986;DHT22;9118;48.122;11.546;2023-11-19T05:05:40;9.60;99.90
17986;DHT22;9118;48.122;11.546;2023-11-19T05:08:07;9.60;99.90
17986;DHT22;9118;48.122;11.546;2023-11-19T05:10:33;9.60;99.90
17986;DHT22;9118;48.122;11.546;2023-11-19T05:13:02;9.60;99.90
17986;DHT22;9118;48.122;11.546;2023-11-19T05:15:29;9.60;99.90
17986;DHT22;9118;48.122;11.546;2023-11-19T05:17:55;9.70;99.90
17986;DHT22;9118;48.122;11.546;2023-11-19T05:20:23;9.70;99.90
17986;DHT22;9118;48.122;11.546;2023-11-19T05:22:50;9.60;99.90
17986;DHT22;9118;48.122;11.546;2023-11-19T05:25:18;9.70;99.90
17986;DHT22;9118;48.122;11.546;2023-11-19T05:27:45;9.70;99.90
17986;DHT22;9118;48.122;11.546;2023-11-19T05:30:12;9.60;99.90
17986;DHT22;9118;48.122;11.546;2023-11-19T05:32:39;9.70;99.90
17986;DHT22;9118;48.122;11.546;2023-11-19T05:35:06;9.70;99.90
17986;DHT22;9118;48.122;11.546;2023-11-19T05:37:35;9.60;99.90
17986;DHT22;9118;48.122;11.546;2023-11-19T05:40:02;9.70;99.90
17986;DHT22;9118;48.122;11.546;2023-11-19T05:42:32;9.70;99.90
17986;DHT22;9118;48.122;11.546;2023-11-19T05:44:59;9.70;99.90
17986;DHT22;9118;48.122;11.546;2023-11-19T05:47:26;9.60;99.90
17986;DHT22;9118;48.122;11.546;2023-11-19T05:49:53;9.70;99.90
17986;DHT22;9118;48.122;11.546;2023-11-19T05:52:20;9.80;99.90
17986;DHT22;9118;48.122;11.546;2023-11-19T05:54:52;9.80;99.90
17986;DHT22;9118;48.122;11.546;2023-11-19T05:57:19;9.80;99.90
17986;DHT22;9118;48.122;11.546;2023-11-19T05:59:49;9.80;99.90
17986;DHT22;9118;48.122;11.546;2023-11-19T06:02:16;9.80;99.90
17986;DHT22;9118;48.122;11.546;2023-11-19T06:04:43;9.80;99.90
17986;DHT22;9118;48.122;11.546;2023-11-19T06:07:13;9.80;99.90
17986;DHT22;9118;48.122;11.546;2023-11-19T06:09:40;9.80;99.90
17986;DHT22;9118;48.122;11.546;2023-11-19T06:12:09;9.70;99.90
17986;DHT22;9118;48.122;11.546;2023-11-19T06:14:36;9.80;99.90
17986;DHT22;9118;48.122;11.546;2023-11-19T06:17:03;9.80;99.90
17986;DHT22;9118;48.122;11.546;2023-11-19T06:19:30;9.80;99.90
17986;DHT22;9118;48.122;11.546;2023-11-19T06:21:58;9.90;99.90
17986;DHT22;9118;48.122;11.546;2023-11-19T06:24:25;9.80;99.90
17986;DHT22;9118;48.122;11.546;2023-11-19T06:26:52;9.90;99.90
17986;DHT22;9118;48.122;11.546;2023-11-19T06:29:20;9.90;99.90
17986;DHT22;9118;48.122;11.546;2023-11-19T06:31:47;9.90;99.90
17986;DHT22;9118;48.122;11.546;2023-11-19T06:34:14;10.00;99.90
17986;DHT22;9118;48.122;11.546;2023-11-19T06:36:41;10.00;99.90
17986;DHT22;9118;48.122;11.546;2023-11-19T06:39:08;10.00;99.90
17986;DHT22;9118;48.122;11.546;2023-11-19T06:41:36;10.00;99.90
17986;DHT22;9118;48.122;11.546;2023-11-19T06:44:04;10.10;99.90
17986;DHT22;9118;48.122;11.546;2023-11-19T06:46:32;10.10;99.90
17986;DHT22;9118;48.122;11.546;2023-11-19T06:48:59;10.10;99.90
17986;DHT22;9118;48.122;11.546;2023-11-19T06:51:26;10.10;99.90
17986;DHT22;9118;48.122;11.546;2023-11-19T06:53:53;10.20;99.90
17986;DHT22;9118;48.122;11.546;2023-11-19T06:58:47;10.30;99.90
17986;DHT22;9118;48.122;11.546;2023-11-19T07:01:14;10.20;99.90
17986;DHT22;9118;48.122;11.546;2023-11-19T07:03:42;10.20;99.90
17986;DHT22;9118;48.122;11.546;2023-11-19T07:06:11;10.10;99.90
17986;DHT22;9118;48.122;11.546;2023-11-19T07:08:39;10.20;99.90
17986;DHT22;9118;48.122;11.546;2023-11-19T07:11:07;10.30;99.90
17986;DHT22;9118;48.122;11.546;2023-11-19T07:13:35;10.30;99.90
17986;DHT22;9118;48.122;11.546;2023-11-19T07:16:02;10.30;99.90
17986;DHT22;9118;48.122;11.546;2023-11-19T07:18:29;10.40;99.90
17986;DHT22;9118;48.122;11.546;2023-11-19T07:21:02;10.50;99.90
17986;DHT22;9118;48.122;11.546;2023-11-19T07:23:29;10.50;99.90
17986;DHT22;9118;48.122;11.546;2023-11-19T07:25:56;10.50;99.90
17986;DHT22;9118;48.122;11.546;2023-11-19T07:28:23;10.50;99.90
17986;DHT22;9118;48.122;11.546;2023-11-19T07:30:50;10.70;99.90
17986;DHT22;9118;48.122;11.546;2023-11-19T07:33:17;10.70;99.90
17986;DHT22;9118;48.122;11.546;2023-11-19T07:38:12;10.70;99.90
17986;DHT22;9118;48.122;11.546;2023-11-19T07:40:39;10.80;99.90
17986;DHT22;9118;48.122;11.546;2023-11-19T07:43:06;10.70;99.90
17986;DHT22;9118;48.122;11.546;2023-11-19T07:45:32;10.70;99.90
17986;DHT22;9118;48.122;11.546;2023-11-19T07:48:00;10.60;99.90
17986;DHT22;9118;48.122;11.546;2023-11-19T07:50:27;10.80;99.90
17986;DHT22;9118;48.122;11.546;2023-11-19T07:52:55;10.80;99.90
17986;DHT22;9118;48.122;11.546;2023-11-19T07:55:23;10.70;99.90
17986;DHT22;9118;48.122;11.546;2023-11-19T07:57:50;10.80;99.90
17986;DHT22;9118;48.122;11.546;2023-11-19T08:00:17;10.80;99.90
17986;DHT22;9118;48.122;11.546;2023-11-19T08:02:45;10.80;99.90
17986;DHT22;9118;48.122;11.546;2023-11-19T08:05:12;10.90;99.90
17986;DHT22;9118;48.122;11.546;2023-11-19T08:07:38;10.90;99.90
17986;DHT22;9118;48.122;11.546;2023-11-19T08:10:05;10.90;99.90
17986;DHT22;9118;48.122;11.546;2023-11-19T08:12:36;11.00;99.90
17986;DHT22;9118;48.122;11.546;2023-11-19T08:15:03;11.00;99.90
17986;DHT22;9118;48.122;11.546;2023-11-19T08:17:32;11.10;99.90
17986;DHT22;9118;48.122;11.546;2023-11-19T08:19:59;11.10;99.90
17986;DHT22;9118;48.122;11.546;2023-11-19T08:22:26;11.10;99.90
17986;DHT22;9118;48.122;11.546;2023-11-19T08:24:53;11.20;99.90
17986;DHT22;9118;48.122;11.546;2023-11-19T08:27:20;11.10;99.90
17986;DHT22;9118;48.122;11.546;2023-11-19T08:29:54;11.30;99.90
17986;DHT22;9118;48.122;11.546;2023-11-19T08:32:22;11.30;99.90
17986;DHT22;9118;48.122;11.546;2023-11-19T08:34:49;10.90;99.90
17986;DHT22;9118;48.122;11.546;2023-11-19T08:37:15;11.50;99.90
17986;DHT22;9118;48.122;11.546;2023-11-19T08:39:43;11.40;99.90
17986;DHT22;9118;48.122;11.546;2023-11-19T08:42:10;11.50;99.90
17986;DHT22;9118;48.122;11.546;2023-11-19T08:44:37;11.50;99.90
17986;DHT22;9118;48.122;11.546;2023-11-19T08:47:05;11.50;99.90
17986;DHT22;9118;48.122;11.546;2023-11-19T08:49:32;11.60;99.90
17986;DHT22;9118;48.122;11.546;2023-11-19T08:51:59;11.60;99.90
17986;DHT22;9118;48.122;11.546;2023-11-19T08:54:26;11.60;99.90
17986;DHT22;9118;48.122;11.546;2023-11-19T08:56:53;11.70;99.90
17986;DHT22;9118;48.122;11.546;2023-11-19T08:59:20;11.70;99.90
17986;DHT22;9118;48.122;11.546;2023-11-19T09:01:47;11.80;99.90
17986;DHT22;9118;48.122;11.546;2023-11-19T09:04:15;11.80;99.90
17986;DHT22;9118;48.122;11.546;2023-11-19T09:06:42;11.80;99.90
17986;DHT22;9118;48.122;11.546;2023-11-19T09:09:09;12.00;99.90
17986;DHT22;9118;48.122;11.546;2023-11-19T09:11:36;11.70;99.90
17986;DHT22;9118;48.122;11.546;2023-11-19T09:14:03;11.80;99.90
17986;DHT22;9118;48.122;11.546;2023-11-19T09:16:31;11.80;99.90
17986;DHT22;9118;48.122;11.546;2023-11-19T09:18:57;11.80;99.90
17986;DHT22;9118;48.122;11.546;2023-11-19T09:21:26;11.70;99.90
17986;DHT22;9118;48.122;11.546;2023-11-19T09:23:54;11.80;99.90
17986;DHT22;9118;48.122;11.546;2023-11-19T09:26:21;11.90;99.90
17986;DHT22;9118;48.122;11.546;2023-11-19T09:28:48;11.90;99.90
17986;DHT22;9118;48.122;11.546;2023-11-19T09:31:15;11.90;99.90
17986;DHT22;9118;48.122;11.546;2023-11-19T09:33:42;11.90;99.90
17986;DHT22;9118;48.122;11.546;2023-11-19T09:36:09;12.00;99.90
17986;DHT22;9118;48.122;11.546;2023-11-19T09:38:37;12.00;99.90
17986;DHT22;9118;48.122;11.546;2023-11-19T09:41:04;12.10;99.90
17986;DHT22;9118;48.122;11.546;2023-11-19T09:43:33;12.00;99.90
17986;DHT22;9118;48.122;11.546;2023-11-19T09:46:01;12.00;99.90
17986;DHT22;9118;48.122;11.546;2023-11-19T09:48:32;11.90;99.90
17986;DHT22;9118;48.122;11.546;2023-11-19T09:50:59;11.80;99.90
17986;DHT22;9118;48.122;11.546;2023-11-19T09:53:27;12.10;99.90
17986;DHT22;9118;48.122;11.546;2023-11-19T09:55:54;12.10;99.90
17986;DHT22;9118;48.122;11.546;2023-11-19T09:58:21;12.30;99.90
17986;DHT22;9118;48.122;11.546;2023-11-19T10:00:49;12.40;99.90
17986;DHT22;9118;48.122;11.546;2023-11-19T10:03:17;12.30;99.90
17986;DHT22;9118;48.122;11.546;2023-11-19T10:05:44;12.40;99.90
17986;DHT22;9118;48.122;11.546;2023-11-19T10:08:11;12.60;99.90
17986;DHT22;9118;48.122;11.546;2023-11-19T10:10:39;12.00;99.90
17986;DHT22;9118;48.122;11.546;2023-11-19T10:13:07;12.60;99.90
17986;DHT22;9118;48.122;11.546;2023-11-19T10:15:35;12.80;99.90
17986;DHT22;9118;48.122;11.546;2023-11-19T10:18:06;12.80;99.90
17986;DHT22;9118;48.122;11.546;2023-11-19T10:20:35;12.60;99.90
17986;DHT22;9118;48.122;11.546;2023-11-19T10:23:01;12.50;99.90
17986;DHT22;9118;48.122;11.546;2023-11-19T10:25:31;12.70;99.90
17986;DHT22;9118;48.122;11.546;2023-11-19T10:27:59;12.70;99.90
17986;DHT22;9118;48.122;11.546;2023-11-19T10:30:28;12.80;99.90
17986;DHT22;9118;48.122;11.546;2023-11-19T10:33:05;12.70;99.90
17986;DHT22;9118;48.122;11.546;2023-11-19T10:35:32;12.70;99.90
17986;DHT22;9118;48.122;11.546;2023-11-19T10:38:00;12.80;99.90
17986;DHT22;9118;48.122;11.546;2023-11-19T10:40:39;12.90;99.90
17986;DHT22;9118;48.122;11.546;2023-11-19T10:43:06;13.00;99.90
17986;DHT22;9118;48.122;11.546;2023-11-19T10:45:35;13.00;99.90
17986;DHT22;9118;48.122;11.546;2023-11-19T10:48:06;13.00;99.90
17986;DHT22;9118;48.122;11.546;2023-11-19T10:50:33;13.20;99.90
17986;DHT22;9118;48.122;11.546;2023-11-19T10:53:00;14.10;99.90
17986;DHT22;9118;48.122;11.546;2023-11-19T10:55:29;13.60;99.90
17986;DHT22;9118;48.122;11.546;2023-11-19T10:57:58;13.30;99.90
17986;DHT22;9118;48.122;11.546;2023-11-19T11:02:54;13.10;99.90
17986;DHT22;9118;48.122;11.546;2023-11-19T11:05:23;13.10;99.90
17986;DHT22;9118;48.122;11.546;2023-11-19T11:07:52;13.00;99.90
17986;DHT22;9118;48.122;11.546;2023-11-19T11:10:22;13.20;99.90
17986;DHT22;9118;48.122;11.546;2023-11-19T11:12:52;13.20;99.90
17986;DHT22;9118;48.122;11.546;2023-11-19T11:15:23;13.20;99.90
17986;DHT22;9118;48.122;11.546;2023-11-19T11:17:51;13.40;99.90
17986;DHT22;9118;48.122;11.546;2023-11-19T11:20:21;13.50;99.90
17986;DHT22;9118;48.122;11.546;2023-11-19T11:22:52;13.60;99.90
17986;DHT22;9118;48.122;11.546;2023-11-19T11:25:23;13.60;99.90
17986;DHT22;9118;48.122;11.546;2023-11-19T11:27:58;13.60;99.90
17986;DHT22;9118;48.122;11.546;2023-11-19T11:30:31;13.70;99.90
17986;DHT22;9118;48.122;11.546;2023-11-19T11:33:05;13.70;99.90
17986;DHT22;9118;48.122;11.546;2023-11-19T11:35:36;13.60;99.90
17986;DHT22;9118;48.122;11.546;2023-11-19T11:38:08;13.70;99.90
17986;DHT22;9118;48.122;11.546;2023-11-19T11:40:38;13.80;99.90
17986;DHT22;9118;48.122;11.546;2023-11-19T11:43:09;13.60;99.90
17986;DHT22;9118;48.122;11.546;2023-11-19T11:45:55;13.60;99.90
17986;DHT22;9118;48.122;11.546;2023-11-19T11:48:27;13.60;99.90
17986;DHT22;9118;48.122;11.546;2023-11-19T11:50:56;13.30;99.90
17986;DHT22;9118;48.122;11.546;2023-11-19T11:53:24;13.60;99.90
17986;DHT22;9118;48.122;11.546;2023-11-19T11:55:56;13.70;99.90
17986;DHT22;9118;48.122;11.546;2023-11-19T11:58:29;13.80;99.90
17986;DHT22;9118;48.122;11.546;2023-11-19T12:00:57;13.60;99.90
17986;DHT22;9118;48.122;11.546;2023-11-19T12:03:26;14.50;99.90
17986;DHT22;9118;48.122;11.546;2023-11-19T12:05:55;13.60;99.90
17986;DHT22;9118;48.122;11.546;2023-11-19T12:08:24;13.70;99.90
17986;DHT22;9118;48.122;11.546;2023-11-19T12:13:19;13.80;99.90
17986;DHT22;9118;48.122;11.546;2023-11-19T12:18:32;13.70;99.90
17986;DHT22;9118;48.122;11.546;2023-11-19T12:21:01;13.50;99.90
17986;DHT22;9118;48.122;11.546;2023-11-19T12:23:28;13.60;99.90
17986;DHT22;9118;48.122;11.546;2023-11-19T12:25:55;13.70;99.90
17986;DHT22;9118;48.122;11.546;2023-11-19T12:28:22;13.80;99.90
17986;DHT22;9118;48.122;11.546;2023-11-19T12:30:49;13.80;99.90
17986;DHT22;9118;48.122;11.546;2023-11-19T12:33:16;13.90;99.90
17986;DHT22;9118;48.122;11.546;2023-11-19T12:35:43;13.70;99.90
17986;DHT22;9118;48.122;11.546;2023-11-19T12:38:19;14.00;99.90
17986;DHT22;9118;48.122;11.546;2023-11-19T12:40:46;13.80;99.90
17986;DHT22;9118;48.122;11.546;2023-11-19T12:43:21;13.70;99.90
17986;DHT22;9118;48.122;11.546;2023-11-19T12:45:48;13.70;99.90
17986;DHT22;9118;48.122;11.546;2023-11-19T12:48:14;13.80;99.90
17986;DHT22;9118;48.122;11.546;2023-11-19T12:50:51;13.80;99.90
17986;DHT22;9118;48.122;11.546;2023-11-19T12:53:19;13.90;99.90
17986;DHT22;9118;48.122;11.546;2023-11-19T12:55:46;13.80;99.90
17986;DHT22;9118;48.122;11.546;2023-11-19T12:58:27;13.80;99.90
17986;DHT22;9118;48.122;11.546;2023-11-19T13:00:58;13.80;99.90
17986;DHT22;9118;48.122;11.546;2023-11-19T13:03:29;13.80;99.90
17986;DHT22;9118;48.122;11.546;2023-11-19T13:06:00;13.80;99.90
17986;DHT22;9118;48.122;11.546;2023-11-19T13:08:35;13.70;99.90
17986;DHT22;9118;48.122;11.546;2023-11-19T13:11:02;13.60;99.90
17986;DHT22;9118;48.122;11.546;2023-11-19T13:13:28;13.60;99.90
17986;DHT22;9118;48.122;11.546;2023-11-19T13:16:01;13.60;99.90
17986;DHT22;9118;48.122;11.546;2023-11-19T13:18:28;13.60;99.90
17986;DHT22;9118;48.122;11.546;2023-11-19T13:20:55;13.70;99.90
17986;DHT22;9118;48.122;11.546;2023-11-19T13:23:22;13.70;99.90
17986;DHT22;9118;48.122;11.546;2023-11-19T13:25:50;13.80;99.90
17986;DHT22;9118;48.122;11.546;2023-11-19T13:28:17;13.90;99.90
17986;DHT22;9118;48.122;11.546;2023-11-19T13:30:44;13.90;99.90
17986;DHT22;9118;48.122;11.546;2023-11-19T13:33:11;13.90;99.90
17986;DHT22;9118;48.122;11.546;2023-11-19T13:35:38;14.00;99.90
17986;DHT22;9118;48.122;11.546;2023-11-19T13:38:06;14.00;99.90
17986;DHT22;9118;48.122;11.546;2023-11-19T13:40:34;14.00;99.90
17986;DHT22;9118;48.122;11.546;2023-11-19T13:43:02;13.90;99.90
17986;DHT22;9118;48.122;11.546;2023-11-19T13:45:29;14.00;99.90
17986;DHT22;9118;48.122;11.546;2023-11-19T13:47:55;13.90;99.90
17986;DHT22;9118;48.122;11.546;2023-11-19T13:50:25;13.80;99.90
17986;DHT22;9118;48.122;11.546;2023-11-19T13:52:54;13.70;99.90
17986;DHT22;9118;48.122;11.546;2023-11-19T13:55:21;13.70;99.90
17986;DHT22;9118;48.122;11.546;2023-11-19T13:57:47;13.70;99.90
17986;DHT22;9118;48.122;11.546;2023-11-19T14:00:16;13.60;99.90
17986;DHT22;9118;48.122;11.546;2023-11-19T14:02:44;13.80;99.90
17986;DHT22;9118;48.122;11.546;2023-11-19T14:05:11;13.60;99.90
17986;DHT22;9118;48.122;11.546;2023-11-19T14:07:39;13.60;99.90
17986;DHT22;9118;48.122;11.546;2023-11-19T14:10:06;13.60;99.90
17986;DHT22;9118;48.122;11.546;2023-11-19T14:12:34;13.60;99.90
17986;DHT22;9118;48.122;11.546;2023-11-19T14:15:02;12.90;99.90
17986;DHT22;9118;48.122;11.546;2023-11-19T14:17:30;13.70;99.90
17986;DHT22;9118;48.122;11.546;2023-11-19T14:19:57;13.60;99.90
17986;DHT22;9118;48.122;11.546;2023-11-19T14:22:24;13.60;99.90
17986;DHT22;9118;48.122;11.546;2023-11-19T14:24:51;13.70;99.90
17986;DHT22;9118;48.122;11.546;2023-11-19T14:27:18;13.60;99.90
17986;DHT22;9118;48.122;11.546;2023-11-19T14:29:45;13.70;99.90
17986;DHT22;9118;48.122;11.546;2023-11-19T14:32:11;13.50;99.90
17986;DHT22;9118;48.122;11.546;2023-11-19T14:34:40;13.60;99.90
17986;DHT22;9118;48.122;11.546;2023-11-19T14:37:06;13.60;99.90
17986;DHT22;9118;48.122;11.546;2023-11-19T14:39:33;13.60;99.90
17986;DHT22;9118;48.122;11.546;2023-11-19T14:42:00;13.60;99.90
17986;DHT22;9118;48.122;11.546;2023-11-19T14:44:29;13.60;99.90
17986;DHT22;9118;48.122;11.546;2023-11-19T14:46:56;13.70;99.90
17986;DHT22;9118;48.122;11.546;2023-11-19T14:49:23;13.50;99.90
17986;DHT22;9118;48.122;11.546;2023-11-19T14:51:52;13.40;99.90
17986;DHT22;9118;48.122;11.546;2023-11-19T14:54:19;13.40;99.90
17986;DHT22;9118;48.122;11.546;2023-11-19T14:56:46;13.40;99.90
17986;DHT22;9118;48.122;11.546;2023-11-19T14:59:13;13.40;99.90
17986;DHT22;9118;48.122;11.546;2023-11-19T15:01:41;13.20;99.90
17986;DHT22;9118;48.122;11.546;2023-11-19T15:04:08;13.10;99.90
17986;DHT22;9118;48.122;11.546;2023-11-19T15:06:34;13.10;99.90
17986;DHT22;9118;48.122;11.546;2023-11-19T15:09:03;13.00;99.90
17986;DHT22;9118;48.122;11.546;2023-11-19T15:11:29;13.10;99.90
17986;DHT22;9118;48.122;11.546;2023-11-19T15:13:56;13.00;99.90
17986;DHT22;9118;48.122;11.546;2023-11-19T15:16:23;12.80;99.90
17986;DHT22;9118;48.122;11.546;2023-11-19T15:18:56;12.80;99.90
17986;DHT22;9118;48.122;11.546;2023-11-19T15:21:24;12.80;99.90
17986;DHT22;9118;48.122;11.546;2023-11-19T15:23:51;12.70;99.90
17986;DHT22;9118;48.122;11.546;2023-11-19T15:26:19;12.70;99.90
17986;DHT22;9118;48.122;11.546;2023-11-19T15:28:46;12.60;99.90
17986;DHT22;9118;48.122;11.546;2023-11-19T15:31:13;12.70;99.90
17986;DHT22;9118;48.122;11.546;2023-11-19T15:33:41;12.50;99.90
17986;DHT22;9118;48.122;11.546;2023-11-19T15:36:08;12.50;99.90
17986;DHT22;9118;48.122;11.546;2023-11-19T15:41:02;12.50;99.90
17986;DHT22;9118;48.122;11.546;2023-11-19T15:43:31;12.40;99.90
17986;DHT22;9118;48.122;11.546;2023-11-19T15:45:58;12.40;99.90
17986;DHT22;9118;48.122;11.546;2023-11-19T15:48:25;12.40;99.90
17986;DHT22;9118;48.122;11.546;2023-11-19T15:50:52;12.30;99.90
17986;DHT22;9118;48.122;11.546;2023-11-19T15:53:19;12.30;99.90
17986;DHT22;9118;48.122;11.546;2023-11-19T15:55:45;12.10;99.90
17986;DHT22;9118;48.122;11.546;2023-11-19T15:58:12;12.20;99.90
17986;DHT22;9118;48.122;11.546;2023-11-19T16:00:40;12.20;99.90